Time;durP1;ratioP1;P1;durP2;ratioP2;P2;SDS_P1;SDS_P2;PMS_P1;PMS_P2;Temp;Humidity;BMP_temperature;BMP_pressure;BME280_temperature;BME280_humidity;BME280_pressure;Samples;Min_cycle;Max_cycle;Signal;HPM_P1;HPM_P2
2023/01/02 00:00:06;;;;;;;26.23;13.98;;;11.30;99.90;;;;;;5032431;28;20068;-66
2023/01/02 00:02:32;;;;;;;27.23;14.40;;;11.30;99.90;;;;;;5022342;28;20046;-67
2023/01/02 00:04:58;;;;;;;27.55;14.63;;;11.30;99.90;;;;;;5029474;28;20045;-67
2023/01/02 00:07:23;;;;;;;27.85;13.68;;;11.30;99.90;;;;;;5032670;28;20044;-68
2023/01/02 00:09:49;;;;;;;27.73;13.35;;;11.30;99.90;;;;;;5025392;28;20135;-67
2023/01/02 00:12:14;;;;;;;23.60;13.02;;;11.30;99.90;;;;;;5024949;28;20036;-67
2023/01/02 00:14:40;;;;;;;24.25;12.93;;;11.40;99.90;;;;;;5031801;28;20049;-67
2023/01/02 00:17:05;;;;;;;24.05;13.02;;;11.40;99.90;;;;;;5032745;28;20088;-67
2023/01/02 00:19:31;;;;;;;25.40;13.48;;;11.40;99.90;;;;;;5029001;28;20029;-67
2023/01/02 00:21:57;;;;;;;28.88;12.98;;;11.40;99.90;;;;;;5031733;28;20407;-67
2023/01/02 00:24:22;;;;;;;27.15;13.95;;;11.40;99.90;;;;;;5032468;28;20044;-67
2023/01/02 00:26:48;;;;;;;27.23;13.38;;;11.40;99.90;;;;;;5024414;28;20042;-67
2023/01/02 00:29:14;;;;;;;24.80;14.20;;;11.40;99.90;;;;;;5021359;28;20045;-67
2023/01/02 00:31:40;;;;;;;29.83;15.32;;;11.40;99.90;;;;;;5031659;28;20790;-66
2023/01/02 00:34:05;;;;;;;30.83;15.52;;;11.50;99.90;;;;;;5032324;28;20085;-67
2023/01/02 00:36:31;;;;;;;28.75;16.27;;;11.50;99.90;;;;;;5022323;28;20033;-67
2023/01/02 00:38:56;;;;;;;28.27;15.82;;;11.50;99.90;;;;;;5026483;28;20041;-67
2023/01/02 00:41:22;;;;;;;29.45;15.30;;;11.50;99.90;;;;;;5031747;28;20045;-67
2023/01/02 00:43:48;;;;;;;25.08;15.55;;;11.50;99.90;;;;;;5027823;28;20052;-67
2023/01/02 00:46:14;;;;;;;28.38;15.57;;;11.60;99.90;;;;;;5030912;28;20041;-67
2023/01/02 00:48:40;;;;;;;30.55;17.50;;;11.60;99.90;;;;;;5031716;28;20041;-67
2023/01/02 00:51:06;;;;;;;28.30;17.17;;;11.60;99.90;;;;;;5028766;28;20634;-67
2023/01/02 00:53:32;;;;;;;33.45;16.65;;;11.60;99.90;;;;;;5025744;28;20574;-67
2023/01/02 00:55:57;;;;;;;27.10;15.30;;;11.70;99.90;;;;;;5031377;28;20105;-68
2023/01/02 00:58:23;;;;;;;26.55;15.50;;;11.70;99.90;;;;;;5031683;28;20045;-67
2023/01/02 01:00:49;;;;;;;26.30;14.52;;;11.70;99.90;;;;;;5013217;28;20038;-67
2023/01/02 01:03:15;;;;;;;23.40;15.57;;;11.80;99.90;;;;;;5023823;28;20044;-67
2023/01/02 01:05:41;;;;;;;26.88;15.80;;;11.80;99.90;;;;;;5031398;28;20117;-67
2023/01/02 01:08:07;;;;;;;29.20;14.15;;;11.90;99.90;;;;;;5028494;28;20044;-67
2023/01/02 01:10:35;;;;;;;26.08;15.02;;;11.90;99.90;;;;;;5024661;28;20495;-68
2023/01/02 01:13:01;;;;;;;27.52;14.10;;;11.80;99.90;;;;;;5029831;28;20585;-67
2023/01/02 01:15:26;;;;;;;25.95;14.10;;;11.80;99.90;;;;;;5031545;28;20069;-67
2023/01/02 01:17:52;;;;;;;26.20;14.38;;;11.70;99.90;;;;;;5013646;28;20038;-67
2023/01/02 01:20:17;;;;;;;27.80;13.93;;;11.70;99.90;;;;;;5029321;28;20040;-67
2023/01/02 01:22:43;;;;;;;26.52;14.05;;;11.70;99.90;;;;;;5031217;28;20091;-68
2023/01/02 01:25:09;;;;;;;29.88;13.95;;;11.60;99.90;;;;;;5023940;28;20037;-67
2023/01/02 01:27:34;;;;;;;27.65;13.60;;;11.60;99.90;;;;;;5026679;28;20036;-67
2023/01/02 01:30:00;;;;;;;24.85;13.15;;;11.60;99.90;;;;;;5030747;28;20125;-67
2023/01/02 01:32:27;;;;;;;24.17;12.82;;;11.60;99.90;;;;;;5031503;28;20088;-67
2023/01/02 01:34:53;;;;;;;28.40;13.63;;;11.60;99.90;;;;;;5017199;28;20073;-67
2023/01/02 01:37:18;;;;;;;27.58;14.23;;;11.60;99.90;;;;;;5026230;28;20071;-68
2023/01/02 01:39:44;;;;;;;25.65;13.05;;;11.60;99.90;;;;;;5031208;28;20042;-67
2023/01/02 01:42:14;;;;;;;24.25;13.98;;;11.60;99.90;;;;;;5022790;28;20069;-67
2023/01/02 01:44:52;;;;;;;26.40;13.40;;;11.70;99.90;;;;;;5027424;28;20099;-66
2023/01/02 01:47:33;;;;;;;27.70;12.60;;;11.70;99.90;;;;;;5030842;28;20038;-67
2023/01/02 01:50:02;;;;;;;28.67;12.63;;;11.60;99.90;;;;;;5027059;28;24461;-67
2023/01/02 01:52:30;;;;;;;29.45;13.70;;;11.60;99.90;;;;;;5012934;28;20511;-68
2023/01/02 01:55:15;;;;;;;24.50;12.77;;;11.60;99.90;;;;;;5029266;28;20041;-68
2023/01/02 01:57:49;;;;;;;29.95;13.35;;;11.60;99.90;;;;;;5013343;28;20053;-67
2023/01/02 02:00:15;;;;;;;26.63;12.32;;;11.60;99.90;;;;;;5023660;28;20128;-67
2023/01/02 02:02:45;;;;;;;26.77;12.48;;;11.60;99.90;;;;;;5028612;28;20045;-67
2023/01/02 02:05:15;;;;;;;27.75;11.80;;;11.60;99.90;;;;;;5030302;28;20507;-67
2023/01/02 02:07:46;;;;;;;24.67;12.55;;;11.60;99.90;;;;;;5022816;28;20044;-67
2023/01/02 02:10:12;;;;;;;28.70;11.73;;;11.70;99.90;;;;;;5032839;28;20048;-67
2023/01/02 02:12:38;;;;;;;21.20;12.05;;;11.70;99.90;;;;;;5034687;28;20041;-67
2023/01/02 02:15:08;;;;;;;22.80;12.50;;;11.70;99.90;;;;;;5034763;28;20112;-67
2023/01/02 02:17:58;;;;;;;20.65;11.15;;;11.70;99.90;;;;;;5029300;28;20077;-67
2023/01/02 02:20:38;;;;;;;28.02;11.15;;;11.80;99.90;;;;;;5029016;28;20124;-67
2023/01/02 02:23:25;;;;;;;21.70;11.20;;;11.80;99.90;;;;;;5032288;28;20046;-67
2023/01/02 02:26:28;;;;;;;22.10;10.52;;;11.80;99.90;;;;;;5022627;28;20191;-67
2023/01/02 02:29:08;;;;;;;20.33;10.35;;;11.80;99.90;;;;;;5033878;28;20415;-67
2023/01/02 02:32:08;;;;;;;21.45;11.18;;;11.90;99.90;;;;;;5033692;28;20042;-67
2023/01/02 02:34:47;;;;;;;19.40;9.43;;;11.90;99.90;;;;;;5014368;28;20120;-67
2023/01/02 02:37:25;;;;;;;20.30;10.00;;;11.90;99.90;;;;;;5034445;28;20041;-67
2023/01/02 02:39:59;;;;;;;19.45;10.38;;;11.90;99.90;;;;;;5031082;28;20045;-67
2023/01/02 02:42:59;;;;;;;17.63;9.70;;;12.00;99.90;;;;;;5010599;28;20053;-67
2023/01/02 02:45:30;;;;;;;21.35;9.57;;;11.90;99.90;;;;;;5028635;28;20030;-68
2023/01/02 02:48:03;;;;;;;;;;;11.90;99.90;;;;;;5034820;28;20044;-67
2023/01/02 02:50:47;;;;;;;17.30;9.00;;;11.90;99.90;;;;;;5021256;28;19979;-67
2023/01/02 02:53:16;;;;;;;17.85;9.73;;;12.00;99.90;;;;;;5026671;28;20447;-67
2023/01/02 02:55:47;;;;;;;19.98;9.68;;;12.00;99.90;;;;;;5034215;28;20634;-67
2023/01/02 02:58:15;;;;;;;21.95;9.70;;;12.00;99.90;;;;;;5027190;28;20034;-67
2023/01/02 03:00:40;;;;;;;19.55;10.60;;;12.00;99.90;;;;;;5032662;28;20507;-67
2023/01/02 03:03:22;;;;;;;18.30;10.18;;;12.00;99.90;;;;;;5033434;28;20103;-67
2023/01/02 03:06:16;;;;;;;23.23;10.18;;;12.00;99.90;;;;;;5027034;28;20037;-67
2023/01/02 03:09:12;;;;;;;22.73;9.88;;;12.00;99.90;;;;;;5004096;28;20053;-67
2023/01/02 03:11:58;;;;;;;19.88;9.55;;;12.00;99.90;;;;;;5033468;28;20041;-67
2023/01/02 03:14:35;;;;;;;27.10;9.68;;;12.00;99.90;;;;;;5021772;28;20179;-67
2023/01/02 03:17:06;;;;;;;21.45;9.55;;;12.00;99.90;;;;;;5030620;28;20116;-67
2023/01/02 03:19:40;;;;;;;23.90;10.02;;;11.90;99.90;;;;;;5033621;28;20044;-67
2023/01/02 03:22:32;;;;;;;15.85;9.05;;;11.90;99.90;;;;;;5033437;28;20050;-66
2023/01/02 03:24:58;;;;;;;21.55;9.20;;;11.90;99.90;;;;;;5022472;28;20049;-67
2023/01/02 03:27:28;;;;;;;22.35;10.93;;;11.90;99.90;;;;;;5027621;28;20101;-67
2023/01/02 03:30:07;;;;;;;21.67;9.77;;;11.90;99.90;;;;;;5030989;28;20038;-67
2023/01/02 03:32:38;;;;;;;18.38;9.55;;;11.90;99.90;;;;;;5017097;28;20037;-67
2023/01/02 03:35:09;;;;;;;23.83;10.27;;;11.80;99.90;;;;;;5033011;28;20044;-67
2023/01/02 03:37:39;;;;;;;15.90;8.65;;;11.80;99.90;;;;;;5033686;28;20508;-67
2023/01/02 03:40:23;;;;;;;19.92;9.30;;;11.80;99.90;;;;;;5015911;28;20083;-67
2023/01/02 03:42:59;;;;;;;16.13;8.07;;;11.80;99.90;;;;;;5030640;28;20479;-67
2023/01/02 03:45:32;;;;;;;19.42;10.30;;;11.80;99.90;;;;;;5033172;28;20103;-67
2023/01/02 03:48:39;;;;;;;16.05;9.57;;;11.90;99.90;;;;;;5021992;28;20551;-67
2023/01/02 03:51:05;;;;;;;21.00;9.82;;;11.90;99.90;;;;;;5005129;28;20037;-67
2023/01/02 03:53:33;;;;;;;19.63;9.88;;;11.90;99.90;;;;;;5032924;28;20037;-67
2023/01/02 03:56:22;;;;;;;20.55;9.98;;;11.90;99.90;;;;;;5021044;28;20045;-67
2023/01/02 03:58:59;;;;;;;18.65;10.52;;;11.90;99.90;;;;;;5030152;28;20053;-67
2023/01/02 04:01:48;;;;;;;21.90;9.63;;;11.90;99.90;;;;;;5035700;28;20029;-67
2023/01/02 04:05:03;;;;;;;19.15;10.15;;;11.90;99.90;;;;;;5025010;28;20086;-67
2023/01/02 04:08:04;;;;;;;17.52;9.00;;;11.90;99.90;;;;;;5020348;28;20052;-67
2023/01/02 04:10:32;;;;;;;18.42;9.55;;;11.90;99.90;;;;;;5036110;28;20044;-67
2023/01/02 04:13:03;;;;;;;18.48;8.40;;;11.90;99.90;;;;;;5029736;28;20068;-67
2023/01/02 04:15:33;;;;;;;22.45;10.63;;;11.90;99.90;;;;;;5030947;28;20037;-67
2023/01/02 04:18:09;;;;;;;20.08;9.85;;;11.90;99.90;;;;;;5032620;28;20107;-67
2023/01/02 04:20:41;;;;;;;23.63;9.15;;;11.90;99.90;;;;;;5028465;28;20073;-67
2023/01/02 04:23:24;;;;;;;16.50;9.65;;;12.00;99.90;;;;;;5018475;28;20550;-67
2023/01/02 04:26:14;;;;;;;17.73;8.88;;;12.00;99.90;;;;;;5038548;28;20052;-67
2023/01/02 04:28:40;;;;;;;21.83;9.32;;;12.00;99.90;;;;;;5025629;28;20045;-67
2023/01/02 04:31:34;;;;;;;22.73;10.90;;;12.00;99.90;;;;;;5023133;28;20526;-67
2023/01/02 04:34:02;;;;;;;18.85;9.13;;;12.00;99.90;;;;;;5016173;28;20053;-67
2023/01/02 04:36:28;;;;;;;19.40;9.52;;;12.20;99.90;;;;;;5022085;28;20121;-68
2023/01/02 04:38:53;;;;;;;24.55;10.00;;;12.20;99.90;;;;;;5020135;28;20120;-67
2023/01/02 04:41:25;;;;;;;17.05;8.55;;;12.30;99.90;;;;;;5030916;28;20037;-67
2023/01/02 04:43:55;;;;;;;15.50;7.25;;;12.30;99.90;;;;;;5018182;28;20049;-67
2023/01/02 04:46:22;;;;;;;18.33;7.85;;;12.30;99.90;;;;;;5028582;28;20121;-66
2023/01/02 04:48:47;;;;;;;15.93;8.25;;;12.30;99.90;;;;;;5029523;28;20079;-67
2023/01/02 04:51:13;;;;;;;16.73;8.45;;;12.40;99.90;;;;;;5031169;28;20034;-67
2023/01/02 04:53:39;;;;;;;16.63;8.50;;;12.40;99.90;;;;;;5012178;28;20435;-66
2023/01/02 04:56:04;;;;;;;18.45;8.98;;;12.40;99.90;;;;;;5024210;28;20128;-66
2023/01/02 04:58:30;;;;;;;13.13;7.45;;;12.40;99.90;;;;;;5031269;28;20399;-66
2023/01/02 05:00:56;;;;;;;18.63;9.18;;;12.40;99.90;;;;;;5031036;28;20488;-66
2023/01/02 05:03:21;;;;;;;16.40;7.60;;;12.50;99.90;;;;;;5021907;28;20125;-66
2023/01/02 05:05:47;;;;;;;16.00;8.18;;;12.40;99.90;;;;;;5028348;28;20037;-66
2023/01/02 05:08:13;;;;;;;20.00;8.65;;;12.40;99.90;;;;;;5031576;28;20065;-66
2023/01/02 05:10:38;;;;;;;20.08;8.48;;;12.40;99.90;;;;;;5024093;28;20037;-66
2023/01/02 05:13:04;;;;;;;16.75;8.05;;;12.40;99.90;;;;;;5024331;28;20490;-66
2023/01/02 05:15:29;;;;;;;20.17;7.95;;;12.40;99.90;;;;;;5031462;28;20519;-66
2023/01/02 05:17:56;;;;;;;18.48;8.52;;;12.40;99.90;;;;;;5031398;28;20049;-66
2023/01/02 05:20:22;;;;;;;19.65;8.77;;;12.40;99.90;;;;;;5022564;28;20049;-66
2023/01/02 05:25:34;;;;;;;14.90;7.90;;;12.40;99.90;;;;;;5031389;28;20095;-66
2023/01/02 05:28:01;;;;;;;18.38;8.10;;;12.50;99.90;;;;;;5027900;28;20045;-66
2023/01/02 05:30:26;;;;;;;15.88;8.38;;;12.50;99.90;;;;;;5030149;28;20104;-66
2023/01/02 05:32:52;;;;;;;20.10;8.27;;;12.40;99.90;;;;;;5030090;28;20063;-66
2023/01/02 05:35:18;;;;;;;17.98;7.30;;;12.50;99.90;;;;;;5030585;28;20189;-66
2023/01/02 05:37:43;;;;;;;12.68;7.93;;;12.50;99.90;;;;;;5025254;28;20037;-66
2023/01/02 05:40:09;;;;;;;15.68;7.85;;;12.50;99.90;;;;;;5034909;28;20041;-66
2023/01/02 05:42:35;;;;;;;17.42;8.27;;;12.50;99.90;;;;;;5045429;28;20040;-66
2023/01/02 05:45:01;;;;;;;17.10;8.50;;;12.50;99.90;;;;;;5038947;28;20046;-66
2023/01/02 05:47:26;;;;;;;15.23;7.47;;;12.50;99.90;;;;;;5032496;28;20372;-66
2023/01/02 05:49:52;;;;;;;18.50;8.30;;;12.60;99.90;;;;;;5035102;28;20057;-66
2023/01/02 05:52:18;;;;;;;17.85;8.32;;;12.60;99.90;;;;;;5034240;28;20129;-66
2023/01/02 05:54:44;;;;;;;18.23;8.30;;;12.60;99.90;;;;;;5015519;28;20254;-66
2023/01/02 05:57:09;;;;;;;16.63;7.53;;;12.60;99.90;;;;;;5035939;28;20046;-66
2023/01/02 05:59:35;;;;;;;16.58;7.57;;;12.60;99.90;;;;;;5055031;28;20442;-66
2023/01/02 06:02:01;;;;;;;14.75;8.05;;;12.60;99.90;;;;;;5024442;28;20103;-66
2023/01/02 06:04:26;;;;;;;16.88;7.15;;;12.60;99.90;;;;;;5034186;28;20038;-66
2023/01/02 06:06:52;;;;;;;14.95;7.47;;;12.60;99.90;;;;;;5024179;28;20037;-66
2023/01/02 06:09:17;;;;;;;15.50;7.75;;;12.60;99.90;;;;;;5034630;28;20037;-66
2023/01/02 06:11:43;;;;;;;12.68;7.65;;;12.60;99.90;;;;;;5033292;28;20072;-66
2023/01/02 06:14:09;;;;;;;14.35;7.95;;;12.60;99.90;;;;;;5034807;28;20033;-66
2023/01/02 06:16:36;;;;;;;16.55;7.20;;;12.60;99.90;;;;;;5032545;28;20500;-68
2023/01/02 06:19:02;;;;;;;12.48;6.75;;;12.60;99.90;;;;;;5021885;28;20599;-66
2023/01/02 06:21:28;;;;;;;12.60;7.15;;;12.70;99.90;;;;;;5032347;28;20084;-65
2023/01/02 06:23:56;;;;;;;14.52;7.28;;;12.70;99.90;;;;;;5033858;28;20073;-66
2023/01/02 06:26:23;;;;;;;14.60;7.80;;;12.70;99.90;;;;;;5014807;28;20046;-66
2023/01/02 06:28:51;;;;;;;13.30;7.38;;;12.60;99.90;;;;;;5030814;28;20164;-66
2023/01/02 06:31:19;;;;;;;13.00;7.55;;;12.70;99.90;;;;;;5034411;28;20500;-66
2023/01/02 06:33:45;;;;;;;12.48;6.80;;;12.60;99.90;;;;;;5023773;28;20079;-67
2023/01/02 06:36:16;;;;;;;17.45;7.18;;;12.60;99.90;;;;;;5023133;28;20045;-65
2023/01/02 06:38:42;;;;;;;12.18;7.40;;;12.60;99.90;;;;;;5034222;28;20084;-67
2023/01/02 06:41:09;;;;;;;13.85;7.60;;;12.50;99.90;;;;;;5047817;28;20041;-66
2023/01/02 06:43:39;;;;;;;13.07;6.97;;;12.50;99.90;;;;;;5014538;28;20092;-66
2023/01/02 06:46:09;;;;;;;10.98;6.68;;;12.60;99.90;;;;;;5027881;28;20431;-65
2023/01/02 06:48:35;;;;;;;12.90;6.70;;;12.60;99.90;;;;;;5014973;28;20026;-66
2023/01/02 06:51:09;;;;;;;12.90;7.60;;;12.60;99.90;;;;;;5024659;28;20561;-66
2023/01/02 06:53:40;;;;;;;10.80;6.60;;;12.60;99.90;;;;;;5035513;28;20099;-67
2023/01/02 06:56:07;;;;;;;12.90;7.65;;;12.60;99.90;;;;;;5007106;28;20044;-67
2023/01/02 06:58:34;;;;;;;11.50;6.78;;;12.60;99.90;;;;;;5027001;28;20142;-67
2023/01/02 07:01:02;;;;;;;13.20;7.43;;;12.60;99.90;;;;;;5022441;28;20044;-67
2023/01/02 07:03:28;;;;;;;15.07;7.53;;;12.60;99.90;;;;;;5029611;28;20045;-67
2023/01/02 07:05:58;;;;;;;14.90;7.07;;;12.60;99.90;;;;;;5032029;28;20037;-67
2023/01/02 07:08:23;;;;;;;13.75;8.55;;;12.50;99.90;;;;;;5022020;28;20391;-67
2023/01/02 07:10:49;;;;;;;16.13;9.18;;;12.50;99.90;;;;;;5030286;28;20064;-67
2023/01/02 07:13:14;;;;;;;17.02;7.60;;;12.40;99.90;;;;;;5028428;28;20040;-67
2023/01/02 07:15:40;;;;;;;18.58;8.07;;;12.40;99.90;;;;;;5024562;28;20029;-67
2023/01/02 07:18:05;;;;;;;18.70;8.68;;;12.40;99.90;;;;;;5028423;28;20095;-66
2023/01/02 07:20:31;;;;;;;9.52;5.20;;;12.30;99.90;;;;;;5029662;28;20420;-66
2023/01/02 07:22:56;;;;;;;11.52;6.43;;;12.30;99.90;;;;;;5029656;28;20037;-66
2023/01/02 07:25:22;;;;;;;7.22;4.60;;;12.20;99.90;;;;;;5017926;28;20061;-66
2023/01/02 07:27:48;;;;;;;7.03;3.83;;;12.00;99.90;;;;;;5012728;28;20046;-66
2023/01/02 07:30:14;;;;;;;5.38;2.60;;;11.80;99.90;;;;;;5026516;28;20034;-66
2023/01/02 07:32:40;;;;;;;3.53;2.67;;;11.60;99.90;;;;;;5029455;28;20037;-66
2023/01/02 07:35:06;;;;;;;5.53;3.83;;;11.40;99.90;;;;;;5024187;28;20042;-65
2023/01/02 07:37:32;;;;;;;5.45;3.90;;;11.30;99.90;;;;;;5011304;28;20558;-65
2023/01/02 07:39:57;;;;;;;4.53;3.75;;;11.20;99.90;;;;;;5014263;28;20127;-64
2023/01/02 07:42:23;;;;;;;7.95;3.70;;;11.10;99.90;;;;;;5033614;28;20041;-66
2023/01/02 07:44:48;;;;;;;5.18;3.80;;;11.10;99.90;;;;;;5030339;28;20033;-66
2023/01/02 07:47:14;;;;;;;4.90;4.00;;;11.00;99.90;;;;;;5025399;28;20037;-66
2023/01/02 07:49:40;;;;;;;5.72;4.07;;;11.00;99.90;;;;;;5017817;28;20041;-66
2023/01/02 07:52:09;;;;;;;6.13;4.63;;;11.00;99.90;;;;;;5028626;28;20590;-66
2023/01/02 07:54:35;;;;;;;6.43;5.13;;;11.00;99.90;;;;;;5029700;28;20399;-67
2023/01/02 07:57:01;;;;;;;8.02;5.82;;;10.90;99.90;;;;;;5010689;28;20045;-67
2023/01/02 07:59:27;;;;;;;7.70;6.00;;;10.90;99.90;;;;;;5021777;28;20042;-67
2023/01/02 08:01:53;;;;;;;7.85;5.72;;;10.80;99.90;;;;;;5026823;28;20159;-67
2023/01/02 08:04:18;;;;;;;8.38;5.82;;;10.80;99.90;;;;;;5049896;28;20052;-66
2023/01/02 08:06:44;;;;;;;8.95;6.35;;;10.70;99.90;;;;;;5026375;28;20120;-66
2023/01/02 08:09:09;;;;;;;7.97;5.63;;;10.70;99.90;;;;;;5029240;28;20079;-66
2023/01/02 08:11:36;;;;;;;8.23;5.88;;;10.70;99.90;;;;;;5029632;28;20029;-65
2023/01/02 08:14:02;;;;;;;9.10;5.90;;;10.70;99.90;;;;;;5023336;28;20053;-66
2023/01/02 08:16:27;;;;;;;9.05;6.75;;;10.70;99.90;;;;;;5022946;28;20044;-67
2023/01/02 08:18:54;;;;;;;8.65;5.80;;;10.60;99.90;;;;;;5006593;28;20073;-67
2023/01/02 08:21:21;;;;;;;9.50;5.47;;;10.60;99.90;;;;;;5018542;28;20037;-66
2023/01/02 08:23:46;;;;;;;9.80;5.93;;;10.50;99.90;;;;;;5033074;28;20041;-66
2023/01/02 08:26:12;;;;;;;8.70;5.20;;;10.50;99.90;;;;;;5033943;28;20042;-67
2023/01/02 08:28:39;;;;;;;11.55;5.97;;;10.40;99.90;;;;;;5031112;28;20033;-67
2023/01/02 08:31:10;;;;;;;8.05;5.15;;;10.40;99.90;;;;;;5021595;28;20033;-66
2023/01/02 08:33:35;;;;;;;6.68;4.65;;;10.30;99.90;;;;;;5031144;28;20112;-66
2023/01/02 08:36:01;;;;;;;7.22;4.32;;;10.30;99.90;;;;;;5038735;28;20170;-67
2023/01/02 08:38:26;;;;;;;7.28;4.28;;;10.30;99.90;;;;;;5020163;28;20599;-67
2023/01/02 08:40:52;;;;;;;7.75;4.43;;;10.20;99.90;;;;;;5015549;28;20041;-67
2023/01/02 08:43:17;;;;;;;5.65;3.35;;;10.20;99.90;;;;;;5024559;28;20472;-67
2023/01/02 08:45:43;;;;;;;6.57;3.15;;;10.10;99.90;;;;;;5027589;28;20049;-67
2023/01/02 08:48:09;;;;;;;6.47;3.65;;;10.10;99.90;;;;;;5025792;28;20033;-67
2023/01/02 08:50:34;;;;;;;6.53;3.70;;;10.00;99.90;;;;;;5022381;28;20033;-67
2023/01/02 08:53:00;;;;;;;5.57;3.30;;;10.00;99.90;;;;;;5030856;28;20061;-68
2023/01/02 08:55:25;;;;;;;6.30;3.63;;;9.90;99.90;;;;;;5026151;28;20026;-67
2023/01/02 08:57:51;;;;;;;6.63;3.50;;;9.90;99.90;;;;;;5038405;28;20044;-67
2023/01/02 09:00:17;;;;;;;6.50;3.40;;;9.90;99.90;;;;;;5040767;28;20033;-69
2023/01/02 09:02:42;;;;;;;5.38;2.72;;;9.80;99.90;;;;;;4991626;28;20128;-69
2023/01/02 09:05:08;;;;;;;6.50;2.85;;;9.80;99.90;;;;;;5012241;28;20064;-69
2023/01/02 09:07:34;;;;;;;6.10;2.92;;;9.70;99.90;;;;;;5028078;28;20179;-69
2023/01/02 09:09:59;;;;;;;4.88;2.75;;;9.70;99.90;;;;;;5014702;28;20037;-69
2023/01/02 09:12:25;;;;;;;5.75;3.10;;;9.70;99.90;;;;;;5009328;28;20044;-69
2023/01/02 09:14:50;;;;;;;7.90;3.15;;;9.70;99.90;;;;;;5016436;28;20475;-69
2023/01/02 09:17:16;;;;;;;4.57;2.50;;;9.70;99.90;;;;;;5031400;28;20388;-69
2023/01/02 09:19:43;;;;;;;5.97;2.92;;;9.60;99.90;;;;;;5031549;28;20037;-69
2023/01/02 09:22:09;;;;;;;4.55;2.50;;;9.60;99.90;;;;;;5021833;28;20501;-69
2023/01/02 09:24:35;;;;;;;4.57;2.45;;;9.60;99.90;;;;;;5031037;28;20112;-69
2023/01/02 09:27:01;;;;;;;5.05;2.58;;;9.60;99.90;;;;;;5030855;28;20064;-69
2023/01/02 09:29:26;;;;;;;5.97;2.60;;;9.50;99.90;;;;;;5039855;28;20025;-68
2023/01/02 09:31:52;;;;;;;3.65;2.13;;;9.50;99.90;;;;;;5030318;28;20034;-69
2023/01/02 09:34:19;;;;;;;5.47;2.35;;;9.50;99.90;;;;;;5029970;28;20025;-69
2023/01/02 09:36:46;;;;;;;4.13;2.13;;;9.40;99.90;;;;;;5029538;28;20060;-68
2023/01/02 09:39:12;;;;;;;4.07;2.33;;;9.40;99.90;;;;;;5018843;28;20117;-69
2023/01/02 09:41:44;;;;;;;4.63;2.25;;;9.40;99.90;;;;;;5026503;28;20125;-69
2023/01/02 09:44:16;;;;;;;4.75;2.08;;;9.40;99.90;;;;;;5036915;28;20408;-67
2023/01/02 09:47:03;;;;;;;5.00;2.38;;;9.40;99.90;;;;;;5019108;28;20160;-67
2023/01/02 09:49:48;;;;;;;4.82;2.25;;;9.40;99.90;;;;;;5031756;28;20033;-67
2023/01/02 09:52:37;;;;;;;4.78;2.30;;;9.40;99.90;;;;;;5035676;28;20495;-66
2023/01/02 09:55:03;;;;;;;4.15;2.25;;;9.40;99.90;;;;;;5028647;28;20045;-66
2023/01/02 09:57:33;;;;;;;4.32;2.38;;;9.40;99.90;;;;;;5042610;28;20033;-66
2023/01/02 10:00:17;;;;;;;4.10;2.20;;;9.40;99.90;;;;;;5042325;28;20037;-68
2023/01/02 10:02:45;;;;;;;3.30;2.10;;;9.40;99.90;;;;;;5042816;28;20093;-68
2023/01/02 10:05:48;;;;;;;4.60;2.30;;;9.50;99.90;;;;;;5030335;28;20044;-68
2023/01/02 10:08:33;;;;;;;5.70;2.50;;;9.50;99.90;;;;;;5037075;28;20076;-68
2023/01/02 10:10:58;;;;;;;3.80;2.20;;;9.50;99.90;;;;;;5028606;28;20045;-67
2023/01/02 10:13:38;;;;;;;6.28;2.38;;;9.60;99.90;;;;;;5019004;28;20103;-69
2023/01/02 10:16:06;;;;;;;5.53;2.42;;;9.60;99.90;;;;;;5030753;28;20041;-67
2023/01/02 10:18:40;;;;;;;5.03;2.30;;;9.60;99.90;;;;;;5034663;28;20042;-69
2023/01/02 10:21:17;;;;;;;4.20;2.28;;;9.70;99.90;;;;;;5025285;28;20092;-67
2023/01/02 10:23:55;;;;;;;4.10;2.22;;;9.70;99.90;;;;;;5029028;28;20049;-66
2023/01/02 10:26:24;;;;;;;5.30;2.35;;;9.70;99.90;;;;;;5034187;28;20407;-66
2023/01/02 10:29:09;;;;;;;5.25;2.40;;;9.80;99.90;;;;;;5028620;28;20119;-66
2023/01/02 10:31:50;;;;;;;4.90;2.42;;;9.80;99.90;;;;;;5033049;28;20049;-66
2023/01/02 10:34:22;;;;;;;4.18;2.50;;;9.80;99.90;;;;;;5034793;28;20095;-66
2023/01/02 10:36:49;;;;;;;4.28;2.20;;;9.70;99.90;;;;;;5024714;28;20093;-69
2023/01/02 10:39:21;;;;;;;5.65;2.60;;;9.80;99.90;;;;;;5031041;28;20084;-68
2023/01/02 10:41:50;;;;;;;3.85;2.22;;;9.80;99.90;;;;;;5033640;28;20045;-67
2023/01/02 10:44:30;;;;;;;4.97;2.47;;;9.70;99.90;;;;;;5021158;28;20046;-67
2023/01/02 10:46:57;;;;;;;3.63;2.42;;;9.70;99.90;;;;;;5029485;28;20046;-69
2023/01/02 10:49:25;;;;;;;4.13;2.45;;;9.70;99.90;;;;;;5025979;28;20136;-67
2023/01/02 10:52:09;;;;;;;4.45;2.30;;;9.70;99.90;;;;;;5043183;28;20124;-66
2023/01/02 10:54:55;;;;;;;5.00;2.50;;;9.70;99.90;;;;;;5033586;28;20431;-66
2023/01/02 10:57:32;;;;;;;6.20;2.92;;;9.70;99.90;;;;;;5040799;28;20036;-66
2023/01/02 11:00:00;;;;;;;5.40;2.75;;;9.70;99.90;;;;;;5041019;28;20033;-66
2023/01/02 11:02:49;;;;;;;4.50;2.60;;;9.70;99.90;;;;;;5030658;28;20029;-66
2023/01/02 11:05:28;;;;;;;3.67;2.67;;;9.80;99.90;;;;;;5037753;28;20026;-66
2023/01/02 11:07:55;;;;;;;5.07;3.03;;;9.80;99.90;;;;;;5040295;28;20044;-66
2023/01/02 11:10:25;;;;;;;4.57;2.83;;;9.90;99.90;;;;;;5042852;28;20116;-67
2023/01/02 11:12:51;;;;;;;7.25;3.30;;;9.90;99.90;;;;;;5036096;28;20037;-66
2023/01/02 11:15:33;;;;;;;7.57;3.75;;;9.90;99.90;;;;;;5033466;28;20030;-66
2023/01/02 11:18:00;;;;;;;8.52;3.65;;;9.90;99.90;;;;;;5038045;28;20609;-66
2023/01/02 11:20:32;;;;;;;4.70;3.22;;;9.90;99.90;;;;;;5040296;28;20518;-66
2023/01/02 11:23:00;;;;;;;7.07;4.40;;;9.90;99.90;;;;;;5038662;28;20040;-66
2023/01/02 11:25:38;;;;;;;7.30;4.53;;;9.90;99.90;;;;;;5024905;28;20128;-66
2023/01/02 11:28:04;;;;;;;6.53;3.90;;;9.90;99.90;;;;;;5013590;28;20124;-66
2023/01/02 11:30:51;;;;;;;7.03;4.93;;;9.90;99.90;;;;;;5018613;28;20120;-66
2023/01/02 11:33:23;;;;;;;6.78;4.20;;;9.90;99.90;;;;;;5013804;28;20496;-65
2023/01/02 11:35:56;;;;;;;7.10;4.53;;;9.90;99.90;;;;;;5010158;28;20036;-66
2023/01/02 11:38:49;;;;;;;7.75;5.30;;;9.90;99.90;;;;;;5026645;28;20046;-66
2023/01/02 11:41:23;;;;;;;9.43;5.68;;;9.90;99.90;;;;;;5009249;28;20530;-66
2023/01/02 11:43:55;;;;;;;7.90;6.00;;;9.90;99.90;;;;;;5024266;28;20048;-65
2023/01/02 11:46:27;;;;;;;10.10;7.38;;;9.90;99.90;;;;;;5032585;28;20169;-66
2023/01/02 11:48:59;;;;;;;10.98;6.78;;;10.00;99.90;;;;;;5024934;28;20064;-66
2023/01/02 11:51:27;;;;;;;10.70;6.40;;;10.00;99.90;;;;;;5020170;28;20494;-67
2023/01/02 11:53:55;;;;;;;11.45;6.40;;;9.90;99.90;;;;;;5031238;28;20065;-67
2023/01/02 11:56:29;;;;;;;12.00;6.65;;;9.90;99.90;;;;;;5021640;28;20037;-67
2023/01/02 11:59:18;;;;;;;12.68;6.63;;;9.90;99.90;;;;;;5028282;28;20064;-68
2023/01/02 12:01:54;;;;;;;11.15;7.15;;;10.00;99.90;;;;;;5037863;28;20447;-70
2023/01/02 12:04:21;;;;;;;13.02;7.22;;;10.00;99.90;;;;;;5026618;28;20495;-66
2023/01/02 12:07:15;;;;;;;9.65;6.57;;;10.00;99.90;;;;;;5037897;28;20034;-66
2023/01/02 12:10:15;;;;;;;8.95;5.55;;;10.00;99.90;;;;;;5036259;28;20080;-66
2023/01/02 12:12:44;;;;;;;9.57;4.40;;;10.10;99.90;;;;;;4971078;28;20159;-65
2023/01/02 12:15:48;;;;;;;8.48;3.97;;;10.10;99.90;;;;;;5032676;28;20042;-66
2023/01/02 12:18:34;;;;;;;9.27;3.97;;;10.00;99.90;;;;;;4999090;28;20041;-66
2023/01/02 12:21:18;;;;;;;6.60;3.42;;;10.00;99.90;;;;;;5031206;28;20419;-66
2023/01/02 12:24:13;;;;;;;9.52;3.00;;;9.90;99.90;;;;;;5017789;28;20042;-67
2023/01/02 12:26:43;;;;;;;7.97;2.80;;;9.90;99.90;;;;;;5022800;28;20112;-66
2023/01/02 12:29:27;;;;;;;10.00;2.85;;;10.00;99.90;;;;;;5018769;28;20033;-65
2023/01/02 12:32:04;;;;;;;5.75;2.15;;;10.00;99.90;;;;;;5031737;28;20702;-66
2023/01/02 12:35:02;;;;;;;7.80;2.30;;;10.00;99.90;;;;;;5028769;28;20052;-66
2023/01/02 12:37:36;;;;;;;6.40;2.22;;;10.00;99.90;;;;;;5009554;28;20045;-66
2023/01/02 12:40:39;;;;;;;5.68;2.20;;;10.00;99.90;;;;;;5031839;28;20447;-66
2023/01/02 12:43:39;;;;;;;6.22;2.30;;;10.00;99.90;;;;;;5030387;28;20029;-66
2023/01/02 12:46:10;;;;;;;9.82;2.40;;;10.00;99.90;;;;;;5031843;28;20041;-65
2023/01/02 12:48:44;;;;;;;9.20;2.40;;;10.00;99.90;;;;;;5021384;28;20049;-65
2023/01/02 12:51:44;;;;;;;6.63;2.30;;;10.00;99.90;;;;;;5013100;28;20046;-65
2023/01/02 12:54:38;;;;;;;8.50;2.50;;;10.00;99.90;;;;;;5023575;28;20033;-66
2023/01/02 12:57:03;;;;;;;9.10;2.38;;;9.90;99.90;;;;;;5031846;28;20045;-66
2023/01/02 13:00:00;;;;;;;8.13;2.80;;;9.90;99.90;;;;;;5027587;28;20037;-66
2023/01/02 13:02:46;;;;;;;13.30;3.47;;;9.90;99.90;;;;;;5029178;28;20037;-66
2023/01/02 13:05:17;;;;;;;6.57;3.25;;;9.90;99.90;;;;;;5028250;28;20384;-64